Time;durP1;ratioP1;P1;durP2;ratioP2;P2;SDS_P1;SDS_P2;PMS_P1;PMS_P2;Temp;Humidity;BMP_temperature;BMP_pressure;BME280_temperature;BME280_humidity;BME280_pressure;Samples;Min_cycle;Max_cycle;Signal;HPM_P1;HPM_P2
2021/12/01 00:01:51;;;;;;;0.40;0.40;;;;;;;3.28;99.30;94974.56;5014990;28;20391;-77
2021/12/01 00:04:16;;;;;;;0.30;0.30;;;;;;;3.31;99.17;94988.16;5008887;28;20041;-77
2021/12/01 00:06:42;;;;;;;0.57;0.30;;;;;;;3.30;99.96;94963.94;4993428;28;20781;-76
2021/12/01 00:09:07;;;;;;;0.30;0.30;;;;;;;3.36;98.90;94975.22;5005694;28;20073;-77
2021/12/01 00:11:33;;;;;;;1.02;0.45;;;;;;;3.30;99.74;94982.13;5009881;28;20042;-77
2021/12/01 00:13:59;;;;;;;0.10;0.10;;;;;;;3.30;99.58;94966.53;4994712;28;20585;-76
2021/12/01 00:16:24;;;;;;;0.75;0.55;;;;;;;3.28;99.97;94961.56;4997731;28;20048;-77
2021/12/01 00:18:50;;;;;;;0.52;0.38;;;;;;;3.33;99.21;94955.66;5008695;28;20076;-77
2021/12/01 00:21:15;;;;;;;0.43;0.43;;;;;;;3.25;99.66;94962.03;5013170;28;20431;-77
2021/12/01 00:23:41;;;;;;;0.40;0.20;;;;;;;3.23;100.00;94955.50;5008195;28;20040;-77
2021/12/01 00:26:06;;;;;;;0.40;0.40;;;;;;;3.27;100.00;94954.78;5004244;28;20045;-77
2021/12/01 00:28:32;;;;;;;0.43;0.22;;;;;;;3.32;99.42;94942.88;5006985;28;20080;-78
2021/12/01 00:30:58;;;;;;;0.40;0.30;;;;;;;3.19;100.00;94950.00;5019435;28;20045;-76
2021/12/01 00:33:24;;;;;;;1.15;0.28;;;;;;;3.21;100.00;94942.72;5006620;28;20764;-75
2021/12/01 00:35:55;;;;;;;0.35;0.32;;;;;;;3.18;100.00;94953.63;5007071;28;20091;-77
2021/12/01 00:38:21;;;;;;;0.30;0.30;;;;;;;3.19;100.00;94950.00;5005166;28;20092;-78
2021/12/01 00:40:47;;;;;;;0.63;0.52;;;;;;;3.15;100.00;94948.88;5007611;28;20041;-78
2021/12/01 00:43:17;;;;;;;0.45;0.40;;;;;;;3.19;100.00;94944.78;5021105;28;20046;-77
2021/12/01 00:45:50;;;;;;;2.53;1.02;;;;;;;3.24;100.00;94941.47;5012778;28;20037;-77
2021/12/01 00:48:19;;;;;;;0.75;0.65;;;;;;;3.26;100.00;94935.03;5008009;28;20109;-77
2021/12/01 00:50:46;;;;;;;0.68;0.43;;;;;;;3.27;100.00;94941.78;5007513;28;20547;-77
2021/12/01 00:53:12;;;;;;;0.55;0.55;;;;;;;3.26;100.00;94934.22;5008395;28;20052;-77
2021/12/01 00:55:38;;;;;;;1.35;0.63;;;;;;;3.25;100.00;94928.25;5021394;28;20049;-77
2021/12/01 00:58:04;;;;;;;0.40;0.40;;;;;;;3.27;99.73;94926.19;5008260;28;20050;-78
2021/12/01 01:00:30;;;;;;;0.52;0.50;;;;;;;3.27;99.61;94926.19;5007692;28;20113;-77
2021/12/01 01:02:58;;;;;;;1.90;1.17;;;;;;;3.32;99.22;94927.28;5009122;28;20083;-76
2021/12/01 01:05:24;;;;;;;1.00;0.50;;;;;;;3.33;98.87;94928.88;5002902;28;20038;-75
2021/12/01 01:07:50;;;;;;;1.65;0.93;;;;;;;3.37;98.22;94919.56;5005925;28;20045;-75
2021/12/01 01:18:39;;;;;;;0.80;0.80;;;;;;;3.49;97.59;94907.25;5001719;28;20038;-78
2021/12/01 01:21:06;;;;;;;0.45;0.35;;;;;;;3.50;96.80;94914.03;5014986;28;20060;-77
2021/12/01 01:23:35;;;;;;;0.50;0.45;;;;;;;3.58;96.34;94910.25;5002978;28;20034;-77
2021/12/01 01:26:02;;;;;;;0.20;0.20;;;;;;;3.51;97.24;94914.84;5001516;28;20498;-77
2021/12/01 01:28:28;;;;;;;0.40;0.40;;;;;;;3.61;96.10;94909.75;4989888;28;20499;-78
2021/12/01 01:30:54;;;;;;;0.25;0.25;;;;;;;3.69;95.50;94900.75;5008271;28;20046;-77
2021/12/01 01:33:21;;;;;;;0.30;0.30;;;;;;;3.72;95.27;94905.47;5002842;28;20118;-78
2021/12/01 01:35:46;;;;;;;1.05;0.90;;;;;;;3.68;95.97;94899.16;5005314;28;20049;-78
2021/12/01 01:38:12;;;;;;;1.38;0.60;;;;;;;3.69;95.51;94891.13;5008050;28;20041;-77
2021/12/01 01:40:38;;;;;;;1.52;0.57;;;;;;;3.77;94.73;94897.75;5012433;28;20121;-77
2021/12/01 01:43:05;;;;;;;0.45;0.28;;;;;;;3.80;94.40;94876.44;4993365;28;20045;-77
2021/12/01 01:45:31;;;;;;;1.10;0.40;;;;;;;3.80;95.13;94874.59;5016984;28;20088;-77
2021/12/01 01:48:00;;;;;;;0.85;0.50;;;;;;;3.75;95.25;94873.75;5004951;28;20121;-77
2021/12/01 01:50:37;;;;;;;0.30;0.30;;;;;;;3.87;93.13;94861.41;4993245;28;20045;-77
2021/12/01 01:53:20;;;;;;;0.45;0.32;;;;;;;3.85;93.71;94863.50;4998462;28;20037;-77
2021/12/01 01:55:49;;;;;;;0.60;0.40;;;;;;;3.81;94.15;94870.19;5022696;28;20053;-77
2021/12/01 01:58:16;;;;;;;0.20;0.20;;;;;;;3.84;93.20;94871.53;5011200;28;20056;-77
2021/12/01 02:00:51;;;;;;;0.10;0.10;;;;;;;3.76;94.86;94864.94;5007177;28;20037;-77
2021/12/01 02:03:19;;;;;;;0.10;0.10;;;;;;;3.84;93.94;94856.69;5010606;28;20127;-77
2021/12/01 02:05:44;;;;;;;0.40;0.20;;;;;;;3.84;94.53;94861.91;5010928;28;20068;-77
2021/12/01 02:08:18;;;;;;;0.00;0.00;;;;;;;3.96;92.98;94857.34;5016037;28;20578;-75
2021/12/01 02:10:48;;;;;;;0.17;0.17;;;;;;;3.88;92.82;94842.19;5010534;28;20045;-76
2021/12/01 02:13:15;;;;;;;0.30;0.20;;;;;;;3.89;92.92;94848.16;4993617;28;20499;-74
2021/12/01 02:15:43;;;;;;;1.65;0.35;;;;;;;3.90;93.40;94840.09;5001970;28;20034;-75
2021/12/01 02:18:08;;;;;;;0.20;0.20;;;;;;;3.89;93.04;94842.94;5006316;28;20536;-76
2021/12/01 02:20:34;;;;;;;0.73;0.40;;;;;;;3.95;92.78;94858.41;5021337;28;20046;-77
2021/12/01 02:23:00;;;;;;;0.22;0.22;;;;;;;4.01;92.55;94845.41;5015649;28;20453;-77
2021/12/01 02:25:26;;;;;;;0.10;0.10;;;;;;;3.82;94.36;94837.91;5010200;28;20041;-77
2021/12/01 02:27:52;;;;;;;0.20;0.20;;;;;;;4.03;92.76;94835.56;5009639;28;20137;-77
2021/12/01 02:30:18;;;;;;;0.00;0.00;;;;;;;3.99;92.16;94828.25;5021345;28;20109;-77
2021/12/01 02:32:44;;;;;;;0.32;0.20;;;;;;;4.09;92.96;94821.56;5009934;28;20037;-77
2021/12/01 02:35:09;;;;;;;0.10;0.10;;;;;;;4.04;92.74;94835.31;5018157;28;20434;-77
2021/12/01 02:37:40;;;;;;;0.10;0.10;;;;;;;4.08;91.90;94817.38;5018916;28;20081;-77
2021/12/01 02:40:06;;;;;;;0.13;0.13;;;;;;;4.01;93.35;94808.97;5006927;28;20041;-77
2021/12/01 02:42:32;;;;;;;0.20;0.20;;;;;;;3.98;92.36;94799.84;5010564;28;20049;-78
2021/12/01 02:44:58;;;;;;;0.40;0.20;;;;;;;4.11;91.87;94803.88;5012184;28;20098;-79
2021/12/01 02:47:28;;;;;;;0.17;0.17;;;;;;;4.07;92.55;94784.56;4994210;28;20049;-79
2021/12/01 02:49:55;;;;;;;0.08;0.08;;;;;;;4.10;90.96;94786.69;5013856;28;20514;-79
2021/12/01 02:52:22;;;;;;;0.10;0.10;;;;;;;4.10;91.00;94786.69;5014483;28;20046;-79
2021/12/01 02:54:48;;;;;;;0.10;0.10;;;;;;;4.08;91.49;94788.72;5014334;28;20077;-79
2021/12/01 02:57:14;;;;;;;0.00;0.00;;;;;;;4.10;91.61;94766.63;5007326;28;20533;-79
2021/12/01 02:59:41;;;;;;;0.05;0.05;;;;;;;4.16;90.18;94754.44;5021886;28;20132;-79
2021/12/01 03:02:08;;;;;;;0.00;0.00;;;;;;;4.18;90.54;94762.81;5013367;28;20491;-79
2021/12/01 03:04:35;;;;;;;0.20;0.20;;;;;;;4.19;91.78;94753.94;5011453;28;20042;-79
2021/12/01 03:07:02;;;;;;;0.47;0.20;;;;;;;4.18;90.80;94768.03;5013651;28;20644;-79
2021/12/01 03:09:27;;;;;;;0.10;0.10;;;;;;;4.18;91.96;94752.41;4997115;28;20050;-80
2021/12/01 03:11:53;;;;;;;0.00;0.00;;;;;;;4.20;91.03;94745.09;5014983;28;20041;-79
2021/12/01 03:14:19;;;;;;;0.77;0.10;;;;;;;4.10;92.72;94760.66;5014596;28;20048;-79
2021/12/01 03:16:49;;;;;;;0.70;0.20;;;;;;;4.26;90.22;94754.53;5010922;28;20095;-78
2021/12/01 03:19:15;;;;;;;0.25;0.10;;;;;;;4.24;91.79;94756.59;5002227;28;20048;-79
2021/12/01 03:21:42;;;;;;;0.10;0.10;;;;;;;4.24;91.26;94746.19;4996154;28;20045;-79
2021/12/01 03:24:08;;;;;;;0.25;0.25;;;;;;;4.16;91.20;94754.44;5013182;28;20060;-80
2021/12/01 03:26:34;;;;;;;0.10;0.10;;;;;;;4.28;90.46;94752.47;4991422;28;20514;-78
2021/12/01 03:29:00;;;;;;;0.13;0.10;;;;;;;4.24;90.85;94756.59;5012192;28;20053;-78
2021/12/01 03:31:26;;;;;;;0.20;0.20;;;;;;;4.21;91.18;94762.31;5006061;28;20049;-77
2021/12/01 03:33:52;;;;;;;0.57;0.20;;;;;;;4.29;90.34;94748.03;5003951;28;20042;-76
2021/12/01 03:36:17;;;;;;;0.10;0.10;;;;;;;4.21;91.31;94744.09;4991628;28;20480;-77
2021/12/01 03:38:43;;;;;;;0.10;0.08;;;;;;;4.19;91.70;94742.75;5007435;28;20045;-78
2021/12/01 03:41:09;;;;;;;0.30;0.30;;;;;;;4.19;91.92;94748.75;5008564;28;20105;-78
2021/12/01 03:43:34;;;;;;;0.30;0.30;;;;;;;4.25;92.08;94742.56;4998599;28;20056;-78
2021/12/01 03:46:00;;;;;;;0.10;0.10;;;;;;;4.22;91.83;94731.84;5005142;28;20120;-78
2021/12/01 03:48:26;;;;;;;0.10;0.10;;;;;;;4.27;91.10;94735.28;4997741;28;20450;-77
2021/12/01 03:50:52;;;;;;;0.25;0.20;;;;;;;4.34;90.24;94735.06;4988758;28;20048;-79
2021/12/01 03:53:20;;;;;;;0.30;0.30;;;;;;;4.29;91.82;94738.41;4978404;28;20050;-79
2021/12/01 03:55:46;;;;;;;0.20;0.20;;;;;;;4.30;90.45;94719.16;5005733;28;20514;-78
2021/12/01 03:58:12;;;;;;;0.45;0.40;;;;;;;4.36;90.63;94727.78;4997906;28;20243;-78
2021/12/01 04:00:38;;;;;;;0.30;0.30;;;;;;;4.39;90.05;94708.28;5009046;28;20042;-78
2021/12/01 04:03:03;;;;;;;0.25;0.25;;;;;;;4.40;90.78;94712.44;5011242;28;20829;-78
2021/12/01 04:05:29;;;;;;;0.20;0.20;;;;;;;4.32;90.88;94706.66;4986252;28;20058;-78
2021/12/01 04:07:55;;;;;;;0.57;0.55;;;;;;;4.41;90.43;94703.59;5003008;28;20052;-78
2021/12/01 04:10:22;;;;;;;0.25;0.25;;;;;;;4.34;91.53;94701.97;5005339;28;20042;-78
2021/12/01 04:12:48;;;;;;;0.20;0.20;;;;;;;4.29;92.22;94701.94;4997272;28;20049;-78
2021/12/01 04:15:14;;;;;;;0.30;0.30;;;;;;;4.29;92.13;94699.34;5006975;28;20042;-78
2021/12/01 04:17:42;;;;;;;1.27;0.30;;;;;;;4.20;93.53;94693.03;4993438;28;20203;-78
2021/12/01 04:20:11;;;;;;;0.35;0.32;;;;;;;4.12;93.50;94680.44;4997609;28;20054;-78
2021/12/01 04:22:37;;;;;;;0.30;0.30;;;;;;;4.33;91.09;94687.38;4993944;28;20052;-78
2021/12/01 04:25:03;;;;;;;0.75;0.30;;;;;;;4.42;91.29;94684.31;5005836;28;20399;-77
2021/12/01 04:27:29;;;;;;;0.20;0.20;;;;;;;4.43;90.33;94675.47;5011505;28;20081;-79
2021/12/01 04:29:54;;;;;;;0.73;0.40;;;;;;;4.42;90.91;94679.13;5007914;28;20566;-79
2021/12/01 04:32:20;;;;;;;0.43;0.43;;;;;;;4.38;91.53;94662.41;5007553;28;20068;-78
2021/12/01 04:34:45;;;;;;;0.30;0.30;;;;;;;4.44;90.36;94674.41;4995028;28;20077;-79
2021/12/01 04:37:11;;;;;;;0.63;0.40;;;;;;;4.49;90.28;94664.03;4993489;28;20042;-78
2021/12/01 04:39:37;;;;;;;0.50;0.50;;;;;;;4.27;92.35;94651.94;4991104;28;20042;-78
2021/12/01 04:42:06;;;;;;;0.47;0.47;;;;;;;4.30;91.23;94651.41;4998297;28;20041;-79
2021/12/01 04:44:36;;;;;;;0.55;0.32;;;;;;;4.25;92.20;94648.78;5003334;28;20462;-78
2021/12/01 04:47:08;;;;;;;0.68;0.50;;;;;;;4.43;91.39;94639.78;4994693;28;20038;-78
2021/12/01 04:49:37;;;;;;;0.40;0.40;;;;;;;4.37;91.72;94650.41;4991833;28;20043;-78
2021/12/01 04:52:04;;;;;;;0.50;0.47;;;;;;;4.43;91.38;94633.78;5012477;28;20125;-78
2021/12/01 04:54:30;;;;;;;1.27;0.75;;;;;;;4.37;91.34;94637.38;4993859;28;20157;-78
2021/12/01 04:56:56;;;;;;;0.52;0.50;;;;;;;4.50;90.40;94629.16;4992579;28;20104;-78
2021/12/01 04:59:22;;;;;;;1.15;0.45;;;;;;;4.34;91.94;94631.66;4997140;28;20065;-78
2021/12/01 05:01:52;;;;;;;0.30;0.30;;;;;;;4.41;90.53;94625.44;4994284;28;20045;-79
2021/12/01 05:04:17;;;;;;;0.50;0.30;;;;;;;4.34;92.14;94610.81;5002364;28;20053;-78
2021/12/01 05:06:43;;;;;;;0.55;0.40;;;;;;;4.45;90.85;94610.88;4994359;28;20042;-78
2021/12/01 05:09:09;;;;;;;0.45;0.32;;;;;;;4.44;92.35;94614.50;4993211;28;20050;-78
2021/12/01 05:11:35;;;;;;;0.35;0.32;;;;;;;4.57;89.70;94619.28;4992852;28;20053;-78
2021/12/01 05:14:01;;;;;;;0.40;0.40;;;;;;;4.57;90.06;94616.69;5000558;28;20045;-78
2021/12/01 05:16:26;;;;;;;0.65;0.60;;;;;;;4.50;90.04;94613.50;4998849;28;20046;-77
2021/12/01 05:18:52;;;;;;;0.20;0.20;;;;;;;4.43;91.07;94615.56;4999010;28;20535;-78
2021/12/01 05:21:18;;;;;;;0.32;0.32;;;;;;;4.58;89.87;94615.63;5014264;28;20411;-77
2021/12/01 05:23:44;;;;;;;0.43;0.43;;;;;;;4.60;90.18;94610.97;5014094;28;20049;-78
2021/12/01 05:26:11;;;;;;;0.60;0.60;;;;;;;4.47;91.78;94601.00;5005445;28;20042;-79
2021/12/01 05:28:40;;;;;;;0.52;0.50;;;;;;;4.58;91.08;94599.22;4990662;28;20050;-78
2021/12/01 05:31:07;;;;;;;0.40;0.40;;;;;;;4.47;91.25;94587.97;5011397;28;20061;-78
2021/12/01 05:33:34;;;;;;;0.60;0.60;;;;;;;4.53;91.12;94592.16;4982415;28;20046;-79
2021/12/01 05:36:00;;;;;;;0.95;0.47;;;;;;;4.52;91.50;94603.59;4994381;28;20046;-79
2021/12/01 05:38:26;;;;;;;0.70;0.43;;;;;;;4.55;91.90;94595.28;5009410;28;20149;-78
2021/12/01 05:40:52;;;;;;;1.77;1.10;;;;;;;4.47;91.99;94598.38;4992562;28;20392;-78
2021/12/01 05:43:18;;;;;;;1.95;1.27;;;;;;;4.40;93.48;94603.03;4993129;28;20038;-78
2021/12/01 05:45:45;;;;;;;1.80;1.08;;;;;;;4.41;93.98;94599.38;5005016;28;20132;-77
2021/12/01 05:48:11;;;;;;;2.17;1.38;;;;;;;4.40;94.46;94597.84;4994427;28;20065;-77
2021/12/01 05:50:37;;;;;;;2.33;1.17;;;;;;;4.21;96.89;94598.25;4995002;28;20447;-76
2021/12/01 05:53:03;;;;;;;1.75;1.13;;;;;;;4.17;97.35;94591.97;4994982;28;20034;-77
2021/12/01 05:55:29;;;;;;;2.17;1.23;;;;;;;4.22;97.17;94586.78;4992795;28;20050;-77
2021/12/01 05:57:54;;;;;;;1.10;0.93;;;;;;;4.24;97.67;94578.69;5000041;28;20050;-77
2021/12/01 06:00:20;;;;;;;2.67;0.98;;;;;;;4.07;98.71;94584.09;4996065;28;20050;-77
2021/12/01 06:02:50;;;;;;;1.17;0.70;;;;;;;3.94;100.00;94586.09;4999778;28;20037;-76
2021/12/01 06:05:16;;;;;;;2.08;1.50;;;;;;;4.02;100.00;94581.44;4994180;28;20037;-77
2021/12/01 06:07:42;;;;;;;1.52;0.90;;;;;;;4.06;100.00;94582.50;4993828;28;20044;-77
2021/12/01 06:10:09;;;;;;;2.28;1.50;;;;;;;4.03;100.00;94573.38;4994289;28;20054;-77
2021/12/01 06:12:34;;;;;;;0.98;0.70;;;;;;;4.04;100.00;94569.75;5001854;28;20045;-77
2021/12/01 06:15:01;;;;;;;0.90;0.90;;;;;;;4.02;100.00;94568.44;4994174;28;20042;-78
2021/12/01 06:17:27;;;;;;;1.17;0.60;;;;;;;3.93;100.00;94561.06;4981073;28;20078;-77
2021/12/01 06:19:53;;;;;;;0.90;0.70;;;;;;;3.90;100.00;94553.78;5010048;28;20053;-77
2021/12/01 06:22:19;;;;;;;1.70;0.73;;;;;;;3.88;100.00;94555.84;4991952;28;20558;-75
2021/12/01 06:24:45;;;;;;;0.93;0.80;;;;;;;3.83;100.00;94548.00;4992502;28;20042;-76
2021/12/01 06:27:11;;;;;;;1.75;0.82;;;;;;;3.76;100.00;94545.59;5006693;28;20392;-77
2021/12/01 06:29:37;;;;;;;0.75;0.73;;;;;;;3.71;100.00;94540.38;4993365;28;20041;-76
2021/12/01 06:32:04;;;;;;;1.30;0.90;;;;;;;3.77;100.00;94543.78;4992536;28;20046;-76
2021/12/01 06:34:29;;;;;;;4.57;1.05;;;;;;;3.67;100.00;94538.53;5004741;28;20058;-77
2021/12/01 06:36:55;;;;;;;4.03;1.08;;;;;;;3.66;100.00;94521.34;5002265;28;20046;-77
2021/12/01 06:39:21;;;;;;;1.48;0.70;;;;;;;3.73;100.00;94527.13;4999224;28;20097;-76
2021/12/01 06:41:46;;;;;;;2.10;0.40;;;;;;;3.64;100.00;94524.97;4993145;28;20115;-77
2021/12/01 06:44:12;;;;;;;1.20;0.75;;;;;;;3.64;100.00;94519.75;4993356;28;20424;-77
2021/12/01 06:46:38;;;;;;;2.25;0.90;;;;;;;3.64;100.00;94519.00;5003545;28;20042;-77
2021/12/01 06:49:03;;;;;;;4.32;1.65;;;;;;;3.58;100.00;94509.59;4992480;28;20046;-77
2021/12/01 06:51:29;;;;;;;1.90;1.00;;;;;;;3.69;100.00;94505.22;5004440;28;20530;-77
2021/12/01 06:53:54;;;;;;;2.63;1.10;;;;;;;3.74;100.00;94508.66;5005731;28;20038;-77
2021/12/01 06:56:21;;;;;;;1.60;0.82;;;;;;;3.77;100.00;94502.94;4996892;28;20120;-77
2021/12/01 06:58:47;;;;;;;1.23;1.02;;;;;;;3.83;100.00;94495.16;5010334;28;20039;-76
2021/12/01 07:01:13;;;;;;;2.25;1.10;;;;;;;3.83;100.00;94495.94;5007421;28;20045;-76
2021/12/01 07:03:39;;;;;;;2.00;1.17;;;;;;;3.75;100.00;94480.78;5004031;28;20046;-76
2021/12/01 07:06:05;;;;;;;1.60;0.95;;;;;;;3.78;100.00;94482.91;4987671;28;20046;-76
2021/12/01 07:08:31;;;;;;;3.47;1.88;;;;;;;3.72;100.00;94489.91;5008444;28;20045;-76
2021/12/01 07:10:57;;;;;;;2.67;1.30;;;;;;;3.81;100.00;94477.19;5010163;28;20045;-78
2021/12/01 07:13:22;;;;;;;3.13;1.55;;;;;;;3.88;100.00;94482.97;4993219;28;20045;-77
2021/12/01 07:15:48;;;;;;;4.57;1.70;;;;;;;3.89;100.00;94478.53;5010054;28;20046;-78
2021/12/01 07:18:13;;;;;;;2.13;1.35;;;;;;;3.96;100.00;94479.88;5008750;28;20049;-77
2021/12/01 07:20:39;;;;;;;1.95;1.20;;;;;;;3.88;100.00;94482.97;4990080;28;20053;-78
2021/12/01 07:23:05;;;;;;;1.33;0.90;;;;;;;3.95;100.00;94483.53;4992915;28;20431;-78
2021/12/01 07:25:31;;;;;;;4.28;0.93;;;;;;;4.01;100.00;94480.94;5005341;28;20578;-78
2021/12/01 07:27:58;;;;;;;2.05;1.13;;;;;;;4.02;100.00;94477.31;5006593;28;20088;-78
2021/12/01 07:30:24;;;;;;;1.08;0.88;;;;;;;3.95;100.00;94483.53;4982439;28;20046;-78
2021/12/01 07:32:51;;;;;;;2.72;1.52;;;;;;;3.99;100.00;94479.38;5012252;28;20038;-78
2021/12/01 07:35:17;;;;;;;2.47;1.33;;;;;;;3.82;100.00;94483.97;5011289;28;20042;-78
2021/12/01 07:37:44;;;;;;;2.15;1.48;;;;;;;3.91;100.00;94466.06;5006657;28;20045;-78
2021/12/01 07:40:10;;;;;;;2.40;1.60;;;;;;;3.93;100.00;94459.56;5010353;28;20129;-78
2021/12/01 07:42:36;;;;;;;3.65;1.67;;;;;;;3.90;100.00;94457.47;5012559;28;20042;-78
2021/12/01 07:45:04;;;;;;;2.30;1.30;;;;;;;3.96;100.00;94448.63;5004865;28;20034;-78
2021/12/01 07:47:32;;;;;;;7.13;1.70;;;;;;;4.08;99.46;94445.03;5004246;28;20046;-75
2021/12/01 07:49:58;;;;;;;2.20;1.40;;;;;;;4.12;99.93;94441.69;4985287;28;20050;-76
2021/12/01 07:52:24;;;;;;;2.95;2.10;;;;;;;4.18;97.24;94434.69;4995752;28;20060;-77
2021/12/01 07:54:49;;;;;;;2.10;1.10;;;;;;;4.24;96.60;94417.22;4987209;28;20411;-75
2021/12/01 07:57:15;;;;;;;2.33;1.10;;;;;;;4.30;95.47;94414.41;5002197;28;20511;-79
2021/12/01 07:59:41;;;;;;;0.70;0.70;;;;;;;4.18;94.97;94421.66;5009120;28;20061;-80
2021/12/01 08:02:07;;;;;;;1.63;1.00;;;;;;;4.26;94.70;94426.38;4992681;28;20038;-80
2021/12/01 08:04:33;;;;;;;1.27;0.85;;;;;;;4.26;94.19;94421.16;4992912;28;20097;-80
2021/12/01 08:06:59;;;;;;;0.70;0.65;;;;;;;4.25;94.22;94413.59;4991184;28;20566;-79
2021/12/01 08:09:25;;;;;;;1.23;1.02;;;;;;;4.11;95.34;94419.28;5004636;28;20038;-78
2021/12/01 08:11:52;;;;;;;1.15;0.93;;;;;;;4.17;94.66;94407.06;5008284;28;20042;-83
2021/12/01 08:14:17;;;;;;;1.00;0.90;;;;;;;4.30;94.33;94403.97;4991821;28;20046;-81
2021/12/01 08:16:43;;;;;;;1.30;0.98;;;;;;;4.24;93.73;94402.41;5005957;28;20064;-82
2021/12/01 08:19:08;;;;;;;2.38;1.30;;;;;;;4.38;92.89;94401.91;4988974;28;20466;-79
2021/12/01 08:21:34;;;;;;;2.35;1.20;;;;;;;4.43;92.78;94404.53;4993300;28;20048;-79
2021/12/01 08:24:00;;;;;;;1.17;0.85;;;;;;;4.50;91.98;94394.66;4988930;28;20069;-80
2021/12/01 08:26:25;;;;;;;2.38;1.25;;;;;;;4.51;92.09;94397.00;4990522;28;20042;-81
2021/12/01 08:28:51;;;;;;;2.03;1.17;;;;;;;4.62;92.35;94400.41;5004883;28;20111;-79
2021/12/01 08:31:18;;;;;;;1.42;1.27;;;;;;;4.74;92.23;94404.59;5004923;28;20482;-79
2021/12/01 08:33:45;;;;;;;2.38;0.95;;;;;;;4.95;91.86;94400.94;4998071;28;20042;-79
2021/12/01 08:36:12;;;;;;;2.55;1.40;;;;;;;4.98;90.20;94397.81;4997950;28;20056;-80
2021/12/01 08:38:39;;;;;;;1.60;1.25;;;;;;;5.05;90.39;94391.56;5012038;28;20046;-80
2021/12/01 08:41:06;;;;;;;0.90;0.90;;;;;;;4.92;90.34;94385.06;5009831;28;20042;-78
2021/12/01 08:43:33;;;;;;;1.05;0.90;;;;;;;5.07;90.26;94376.44;5011159;28;20041;-79
2021/12/01 08:45:59;;;;;;;0.90;0.90;;;;;;;5.07;90.21;94381.66;4999873;28;20133;-80
2021/12/01 08:48:24;;;;;;;2.38;1.08;;;;;;;5.07;89.52;94382.44;4975291;28;20092;-77
2021/12/01 08:50:50;;;;;;;1.50;0.95;;;;;;;5.21;88.66;94382.69;4991862;28;20104;-79
2021/12/01 08:53:16;;;;;;;1.52;1.10;;;;;;;5.11;88.67;94377.47;5003866;28;20042;-77
2021/12/01 08:55:42;;;;;;;1.73;1.00;;;;;;;5.18;89.01;94381.38;4999697;28;20478;-78
2021/12/01 08:58:10;;;;;;;2.22;1.20;;;;;;;5.21;91.53;94377.47;4989030;28;20104;-77
2021/12/01 09:00:38;;;;;;;1.58;1.17;;;;;;;5.20;88.22;94365.47;5007861;28;20058;-80
2021/12/01 09:03:04;;;;;;;0.93;0.93;;;;;;;5.28;88.10;94372.75;5002069;28;20042;-81
2021/12/01 09:05:30;;;;;;;1.73;1.00;;;;;;;5.27;87.28;94358.19;5011305;28;20066;-79
2021/12/01 09:07:56;;;;;;;1.90;1.13;;;;;;;5.25;87.70;94364.69;4994059;28;20044;-80
2021/12/01 09:10:22;;;;;;;2.33;1.60;;;;;;;5.33;87.04;94357.13;5011085;28;20113;-80
2021/12/01 09:12:47;;;;;;;2.30;0.70;;;;;;;5.51;87.07;94360.19;5009173;28;20428;-79
2021/12/01 09:15:14;;;;;;;1.83;1.25;;;;;;;5.61;86.31;94354.94;5002290;28;20073;-80
2021/12/01 09:17:40;;;;;;;2.35;1.50;;;;;;;5.71;84.91;94365.34;5007950;28;20054;-79
2021/12/01 09:20:07;;;;;;;1.73;0.80;;;;;;;5.83;84.07;94361.66;5005454;28;20046;-79
2021/12/01 09:22:33;;;;;;;1.05;0.90;;;;;;;5.82;84.73;94365.31;4993878;28;20117;-80
2021/12/01 09:24:59;;;;;;;0.93;0.77;;;;;;;5.99;82.33;94371.03;4993894;28;20065;-78
2021/12/01 09:27:24;;;;;;;1.52;1.00;;;;;;;6.24;83.12;94366.75;4998515;28;20046;-79
2021/12/01 09:29:53;;;;;;;0.93;0.82;;;;;;;6.49;81.42;94372.88;5006512;28;20089;-79
2021/12/01 09:32:18;;;;;;;2.08;1.10;;;;;;;6.79;81.58;94363.25;4994078;28;20038;-79
2021/12/01 09:34:44;;;;;;;2.20;1.08;;;;;;;7.36;77.61;94359.09;5007565;28;20045;-81
2021/12/01 09:37:10;;;;;;;0.95;0.88;;;;;;;7.33;76.75;94359.66;5008711;28;20052;-79
2021/12/01 09:39:36;;;;;;;0.93;0.90;;;;;;;7.58;74.56;94356.00;5003376;28;20539;-78
2021/12/01 09:42:03;;;;;;;0.80;0.80;;;;;;;6.95;75.23;94359.47;5001630;28;20045;-79
2021/12/01 09:44:29;;;;;;;2.63;0.98;;;;;;;6.74;79.41;94358.84;5011481;28;20049;-79
2021/12/01 09:46:55;;;;;;;0.82;0.80;;;;;;;6.66;78.66;94367.28;5004139;28;20046;-79
2021/12/01 09:49:20;;;;;;;3.83;2.03;;;;;;;6.73;80.03;94355.44;5012073;28;20722;-79
2021/12/01 09:51:46;;;;;;;1.75;1.13;;;;;;;6.76;77.79;94341.81;4990138;28;20038;-79
2021/12/01 09:54:12;;;;;;;1.98;1.33;;;;;;;8.17;72.63;94339.34;5001372;28;20038;-79
2021/12/01 09:56:37;;;;;;;2.13;1.30;;;;;;;9.75;66.72;94327.38;4993316;28;20048;-80
2021/12/01 09:59:03;;;;;;;2.38;1.00;;;;;;;10.10;65.38;94322.50;5013139;28;20042;-79
2021/12/01 10:01:29;;;;;;;1.17;0.90;;;;;;;9.11;67.39;94314.88;5006152;28;20185;-80
2021/12/01 10:03:55;;;;;;;1.83;1.30;;;;;;;10.95;63.68;94310.63;4992300;28;20045;-79
2021/12/01 10:06:23;;;;;;;0.80;0.80;;;;;;;10.77;61.12;94291.34;4983851;28;20049;-78
2021/12/01 10:08:53;;;;;;;1.33;1.23;;;;;;;11.14;64.03;94300.69;4993852;28;20044;-78
2021/12/01 10:11:29;;;;;;;2.42;1.70;;;;;;;11.80;58.72;94284.19;5011791;28;20426;-78
2021/12/01 10:13:57;;;;;;;4.22;2.45;;;;;;;12.47;56.29;94279.66;4993194;28;20042;-78
2021/12/01 10:16:30;;;;;;;2.15;1.80;;;;;;;13.03;56.31;94263.09;4987281;28;20477;-78
2021/12/01 10:18:59;;;;;;;0.93;0.93;;;;;;;11.80;56.12;94263.09;5008990;28;20116;-77
2021/12/01 10:21:32;;;;;;;1.90;1.27;;;;;;;12.19;54.72;94248.28;4999807;28;20042;-78
2021/12/01 10:24:13;;;;;;;1.23;1.08;;;;;;;12.25;56.27;94247.03;5009274;28;20497;-78
2021/12/01 10:26:41;;;;;;;0.85;0.75;;;;;;;13.36;52.10;94244.84;5006375;28;20057;-78
2021/12/01 10:29:12;;;;;;;1.08;0.90;;;;;;;13.45;52.71;94239.53;5007803;28;20038;-78
2021/12/01 10:31:47;;;;;;;1.67;1.10;;;;;;;12.78;52.56;94228.53;4990922;28;20091;-78
2021/12/01 10:34:23;;;;;;;2.17;1.50;;;;;;;12.82;50.86;94216.25;5009358;28;20111;-75
2021/12/01 10:37:08;;;;;;;1.15;0.77;;;;;;;10.69;56.92;94211.28;4997195;28;20069;-76
2021/12/01 10:39:35;;;;;;;2.63;0.70;;;;;;;10.67;57.58;94208.16;5009009;28;20041;-79
2021/12/01 10:42:11;;;;;;;1.45;1.05;;;;;;;9.60;59.80;94204.25;4988088;28;20112;-78
2021/12/01 10:44:37;;;;;;;4.05;1.80;;;;;;;9.38;62.78;94195.22;4993520;28;20034;-77
2021/12/01 10:47:10;;;;;;;1.33;0.90;;;;;;;9.41;61.93;94186.75;5010321;28;20503;-78
2021/12/01 10:49:42;;;;;;;1.27;0.98;;;;;;;9.28;63.60;94182.28;4975423;28;20042;-77
2021/12/01 10:52:39;;;;;;;1.25;1.00;;;;;;;10.03;60.16;94185.44;4974826;28;20051;-77
2021/12/01 10:55:14;;;;;;;0.93;0.70;;;;;;;9.29;64.35;94162.84;4991257;28;20187;-78
2021/12/01 10:57:42;;;;;;;1.42;0.80;;;;;;;8.98;64.46;94163.47;5002140;28;20057;-78
2021/12/01 11:00:26;;;;;;;2.35;0.60;;;;;;;8.88;65.08;94147.88;5007240;28;20046;-77
2021/12/01 11:02:54;;;;;;;5.78;0.82;;;;;;;8.60;67.56;94147.88;5010911;28;20037;-77
2021/12/01 11:05:34;;;;;;;2.67;0.60;;;;;;;8.54;65.03;94143.78;4991280;28;20057;-76
2021/12/01 11:08:14;;;;;;;0.98;0.80;;;;;;;8.44;65.98;94135.03;4995719;28;20042;-78
2021/12/01 11:10:41;;;;;;;2.50;1.70;;;;;;;8.35;67.39;94131.50;5009302;28;20042;-77
2021/12/01 11:13:07;;;;;;;2.40;1.10;;;;;;;8.43;66.64;94128.22;4990782;28;20080;-78
2021/12/01 11:15:37;;;;;;;3.08;1.83;;;;;;;8.38;68.03;94114.41;5009774;28;20046;-78
2021/12/01 11:18:04;;;;;;;1.88;0.90;;;;;;;8.32;67.68;94108.50;5001825;28;20050;-77
2021/12/01 11:20:35;;;;;;;1.52;0.65;;;;;;;8.25;67.62;94095.00;5006735;28;20050;-77
2021/12/01 11:23:12;;;;;;;0.60;0.60;;;;;;;8.13;68.23;94104.09;5000055;28;20526;-78
2021/12/01 11:25:38;;;;;;;1.17;0.90;;;;;;;8.11;67.58;94100.97;5019854;28;20060;-77
2021/12/01 11:28:08;;;;;;;0.80;0.60;;;;;;;8.08;67.91;94096.28;5005888;28;20045;-78
2021/12/01 11:30:36;;;;;;;1.25;0.82;;;;;;;8.11;68.60;94093.09;4993702;28;20038;-77
2021/12/01 11:33:02;;;;;;;1.17;0.85;;;;;;;8.13;69.21;94093.59;5000994;28;20065;-77
2021/12/01 11:35:28;;;;;;;2.22;0.90;;;;;;;8.07;70.38;94089.50;5002113;28;20103;-78
2021/12/01 11:37:55;;;;;;;2.53;1.20;;;;;;;8.12;69.51;94086.78;4995824;28;20054;-77
2021/12/01 11:40:31;;;;;;;0.80;0.70;;;;;;;8.19;68.33;94086.44;5001308;28;20054;-77
2021/12/01 11:42:57;;;;;;;0.70;0.70;;;;;;;8.13;68.33;94077.88;5004681;28;20050;-80
2021/12/01 11:45:24;;;;;;;0.95;0.63;;;;;;;8.19;68.98;94069.91;4992030;28;20053;-78
2021/12/01 11:47:53;;;;;;;1.30;1.00;;;;;;;8.14;69.34;94060.31;5008947;28;20041;-77